Port Hueneme, CA

2:55 PM PDT on May 30, 2015 (GMT -0700)
NBVC | | Change Station
CLOSE
Current Station
Personal Weather Station
Location: Port Hueneme, CA
Elevation: 20 ft
Nearby Weather Stations

Elev 20 ft 34.17 °N, 119.21 °W | Updated 5 minutes ago

Overcast
Overcast
63.4 °F
Feels Like 63.4 °F
N
5.0
Wind Variable Wind from SSW
Gusts 5.0 mph

Today
High -- | Low -- °F
--% Chance of Precip.
Yesterday
High -- | Low -- °F
Precip. -- in
5:46 AM 8:02 PM
Waxing Gibbous, 92% visible
Pressure 29.95 in
Visibility 8.0 miles
Clouds Overcast 1000 ft
Dew Point 59 °F
Humidity 85%
Rainfall 0.00 in
Snow Depth Not available.
UV 3 out of 12
Pollen 6.20 out of 12
Air Quality Not available.
Flu Activity Sporadic
METAR KOXR 302151Z 23007KT 8SM OVC010 18/13 A2995 RMK AO2 SLP140 T01780133

More Conditions Fewer Conditions

Pressure 29.95 in
Visibility 8.0 miles
Clouds Overcast 1000 ft
Dew Point 59 °F
Humidity 85%
Rainfall 0.00 in
Snow Depth Not available.
UV 3 out of 12
Pollen 6.20 out of 12
Air Quality Not available.
Flu Activity Sporadic
METAR KOXR 302151Z 23007KT 8SM OVC010 18/13 A2995 RMK AO2 SLP140 T01780133

More Conditions Fewer Conditions

10-Day Weather Forecast

Almanac

Astronomy

May. 30, 2015 Rise Set
Actual Time
Civil Twilight
Nautical Twilight
Astronomical Twilight
Moon
Length of Visible Light
Length of Day
Tomorrow will be .
, % of the Moon is Illuminated

Today's Extremes

State Highs State Lows

Community

WunderPhotos

Upload Photos

1,825,608 photos uploaded!

WunderBlogs® & News

Nearby

Air Quality

  Air Quality AQ Index Pollutant
Not available.

Snow Depth

Station Depth Elevation

Earthquake Activity

City Distance Mag. Time & Date
Minimum magnitude displayed is 2.5.

Coastal Water Temperatures

Place Temperature

Stations

Nearby Weather Stations

Station Location Temp. Windchill Dew Point Humidity Wind Precip. Elev Updated Type